Time;durP1;ratioP1;P1;durP2;ratioP2;P2;SDS_P1;SDS_P2;PMS_P1;PMS_P2;Temp;Humidity;BMP_temperature;BMP_pressure;BME280_temperature;BME280_humidity;BME280_pressure;Samples;Min_cycle;Max_cycle;Signal;HPM_P1;HPM_P2
2023/09/30 00:01:58;;;;;;;;;;;;;;;17.71;59.40;100919.59;5406024;32;34156;-78
2023/09/30 00:05:00;;;;;;;;;;;;;;;18.58;56.95;100911.50;5418519;32;34723;-78
2023/09/30 00:08:03;;;;;;;;;;;;;;;18.41;57.41;100923.19;5431799;32;34481;-78
2023/09/30 00:11:05;;;;;;;;;;;;;;;18.47;57.76;100913.12;5416553;32;34004;-77
2023/09/30 00:14:07;;;;;;;;;;;;;;;18.13;58.72;100907.28;5433580;32;35480;-78
2023/09/30 00:17:10;;;;;;;;;;;;;;;18.51;57.78;100907.53;5416808;32;34941;-78
2023/09/30 00:20:14;;;;;;;;;;;;;;;18.76;56.59;100901.50;5419311;32;34120;-78
2023/09/30 00:23:16;;;;;;;;;;;;;;;18.51;57.60;100909.31;5431702;32;35373;-78
2023/09/30 00:26:19;;;;;;;;;;;;;;;18.88;56.47;100903.38;5417103;32;35314;-78
2023/09/30 00:29:21;;;;;;;;;;;;;;;18.87;56.48;100901.66;5415957;32;34641;-78
2023/09/30 00:32:23;;;;;;;;;;;;;;;18.41;57.16;100909.03;5429813;32;33185;-78
2023/09/30 00:35:26;;;;;;;;;;;;;;;17.77;59.98;100902.41;5433521;32;34614;-78
2023/09/30 00:38:29;;;;;;;;;;;;;;;18.49;57.63;100884.63;5431043;32;35826;-78
2023/09/30 00:41:31;;;;;;;;;;;;;;;18.43;57.65;100891.19;5433441;32;35430;-78
2023/09/30 00:44:33;;;;;;;;;;;;;;;17.99;59.69;100892.19;5417296;32;35184;-78
2023/09/30 00:47:36;;;;;;;;;;;;;;;18.60;58.05;100890.94;5431255;32;33814;-77
2023/09/30 00:50:38;;;;;;;;;;;;;;;18.29;58.34;100883.22;5433000;32;35325;-78
2023/09/30 00:53:40;;;;;;;;;;;;;;;18.43;58.38;100883.22;5430517;32;34099;-78
2023/09/30 00:56:46;;;;;;;;;;;;;;;18.88;57.04;100887.38;5431215;32;34213;-77
2023/09/30 00:59:49;;;;;;;;;;;;;;;17.82;60.32;100887.87;5432371;32;34159;-78
2023/09/30 01:02:53;;;;;;;;;;;;;;;18.03;59.98;100875.09;5436593;32;35315;-78
2023/09/30 01:05:55;;;;;;;;;;;;;;;18.38;58.88;100874.66;5432743;32;34373;-78
2023/09/30 01:08:57;;;;;;;;;;;;;;;18.96;56.80;100876.22;5429581;32;33822;-78
2023/09/30 01:11:59;;;;;;;;;;;;;;;18.52;57.96;100884.41;5433495;32;35105;-78
2023/09/30 01:15:02;;;;;;;;;;;;;;;18.57;57.95;100880.50;5430346;32;34968;-78
2023/09/30 01:18:07;;;;;;;;;;;;;;;18.11;59.19;100878.13;5419616;32;35018;-78
2023/09/30 01:21:10;;;;;;;;;;;;;;;18.08;59.45;100885.41;5412646;32;34378;-78
2023/09/30 01:24:13;;;;;;;;;;;;;;;18.28;59.08;100881.50;5415277;32;35356;-78
2023/09/30 01:27:18;;;;;;;;;;;;;;;18.33;58.68;100882.94;5422702;32;34194;-78
2023/09/30 01:30:22;;;;;;;;;;;;;;;18.06;59.86;100884.66;5431121;32;34198;-78
2023/09/30 01:33:24;;;;;;;;;;;;;;;18.31;58.88;100887.50;5432809;32;34116;-78
2023/09/30 01:36:28;;;;;;;;;;;;;;;18.31;58.75;100887.50;5416161;32;34223;-78
2023/09/30 01:39:30;;;;;;;;;;;;;;;17.53;61.64;100886.12;5417007;32;35339;-78
2023/09/30 01:42:33;;;;;;;;;;;;;;;17.31;62.75;100883.88;5416888;32;34368;-78
2023/09/30 01:45:35;;;;;;;;;;;;;;;18.19;59.99;100882.94;5431048;32;34256;-78
2023/09/30 01:48:37;;;;;;;;;;;;;;;18.34;59.57;100883.78;5432561;32;34418;-78
2023/09/30 01:51:40;;;;;;;;;;;;;;;18.16;59.77;100879.62;5429903;32;34241;-78
2023/09/30 01:54:42;;;;;;;;;;;;;;;18.10;60.25;100888.84;5428861;32;35298;-78
2023/09/30 01:57:44;;;;;;;;;;;;;;;17.46;62.63;100876.81;5430908;32;35395;-78
2023/09/30 02:00:46;;;;;;;;;;;;;;;17.65;62.11;100876.56;5418403;32;34324;-78
2023/09/30 02:03:49;;;;;;;;;;;;;;;17.78;61.61;100875.75;5429997;32;34349;-78
2023/09/30 02:06:51;;;;;;;;;;;;;;;17.77;61.41;100875.81;5428725;32;34501;-78
2023/09/30 02:09:54;;;;;;;;;;;;;;;18.08;60.32;100872.13;5432166;32;34101;-81
2023/09/30 02:12:56;;;;;;;;;;;;;;;18.59;58.57;100869.75;5416417;32;34090;-80
2023/09/30 02:15:59;;;;;;;;;;;;;;;18.49;58.70;100869.50;5432268;32;34499;-80
2023/09/30 02:19:01;;;;;;;;;;;;;;;18.06;60.00;100874.03;5429992;32;35318;-79
2023/09/30 02:22:04;;;;;;;;;;;;;;;17.37;62.32;100878.19;5432014;32;34248;-79
2023/09/30 02:25:07;;;;;;;;;;;;;;;17.47;62.34;100878.53;5429979;32;34307;-79
2023/09/30 02:28:10;;;;;;;;;;;;;;;16.98;63.99;100873.44;5428980;32;35376;-79
2023/09/30 02:31:12;;;;;;;;;;;;;;;17.01;64.58;100873.28;5434286;32;33968;-80
2023/09/30 02:34:15;;;;;;;;;;;;;;;17.07;64.00;100870.25;5417211;32;35183;-79
2023/09/30 02:37:18;;;;;;;;;;;;;;;17.37;63.40;100858.75;5425366;32;34256;-79
2023/09/30 02:40:20;;;;;;;;;;;;;;;17.28;63.19;100860.16;5435836;32;34255;-80
2023/09/30 02:43:22;;;;;;;;;;;;;;;17.42;63.21;100862.84;5422539;32;34220;-80
2023/09/30 02:46:27;;;;;;;;;;;;;;;17.29;63.06;100865.38;5435688;32;35383;-80
2023/09/30 02:49:32;;;;;;;;;;;;;;;17.68;61.75;100863.91;5435679;32;34226;-81
2023/09/30 02:52:34;;;;;;;;;;;;;;;17.77;61.56;100863.38;5435037;32;34101;-80
2023/09/30 02:55:36;;;;;;;;;;;;;;;17.94;61.08;100861.50;5413338;32;34945;-81
2023/09/30 02:58:40;;;;;;;;;;;;;;;18.13;60.22;100873.53;5437993;32;35341;-80
2023/09/30 03:01:42;;;;;;;;;;;;;;;17.14;63.32;100862.78;5435579;32;35331;-80
2023/09/30 03:04:46;;;;;;;;;;;;;;;16.63;66.00;100873.63;5436758;32;34393;-80
2023/09/30 03:07:50;;;;;;;;;;;;;;;17.33;63.91;100866.91;5435712;32;35161;-80
2023/09/30 03:10:52;;;;;;;;;;;;;;;17.81;61.24;100869.38;5435728;32;34001;-80
2023/09/30 03:13:55;;;;;;;;;;;;;;;17.08;64.05;100874.63;5423726;32;35372;-80
2023/09/30 03:16:58;;;;;;;;;;;;;;;17.43;63.01;100875.19;5428733;32;34549;-80
2023/09/30 03:20:01;;;;;;;;;;;;;;;17.05;64.10;100875.62;5423243;32;36863;-79
2023/09/30 03:23:04;;;;;;;;;;;;;;;17.25;63.38;100871.81;5421199;32;34179;-80
2023/09/30 03:26:10;;;;;;;;;;;;;;;17.47;62.91;100870.56;5435790;32;35391;-79
2023/09/30 03:29:12;;;;;;;;;;;;;;;17.58;62.26;100876.94;5437181;32;34291;-80
2023/09/30 03:32:14;;;;;;;;;;;;;;;17.60;62.15;100877.69;5435374;32;34899;-80
2023/09/30 03:35:21;;;;;;;;;;;;;;;17.37;63.21;100883.50;5423099;32;35354;-80
2023/09/30 03:38:23;;;;;;;;;;;;;;;16.53;66.37;100885.69;5435087;32;35313;-80
2023/09/30 03:41:26;;;;;;;;;;;;;;;16.65;65.71;100890.31;5425464;32;34260;-81
2023/09/30 03:44:28;;;;;;;;;;;;;;;17.33;63.71;100882.00;5431246;32;35317;-79
2023/09/30 03:47:31;;;;;;;;;;;;;;;17.25;63.74;100885.09;5432334;32;36354;-78
2023/09/30 03:50:33;;;;;;;;;;;;;;;17.46;62.90;100882.13;5418520;32;34315;-78
2023/09/30 03:53:35;;;;;;;;;;;;;;;17.70;62.00;100877.97;5429906;32;36102;-79
2023/09/30 03:56:41;;;;;;;;;;;;;;;17.96;60.86;100878.19;5433231;32;34826;-79
2023/09/30 03:59:45;;;;;;;;;;;;;;;17.58;61.84;100884.91;5431215;32;33648;-78
2023/09/30 04:02:49;;;;;;;;;;;;;;;16.74;64.44;100896.91;5431586;32;34335;-78
2023/09/30 04:05:53;;;;;;;;;;;;;;;16.01;68.56;100891.19;5431474;32;36704;-78
2023/09/30 04:08:55;;;;;;;;;;;;;;;16.21;68.61;100893.63;5431343;32;34168;-78
2023/09/30 04:11:58;;;;;;;;;;;;;;;16.65;66.84;100887.66;5418162;32;33887;-78
2023/09/30 04:15:00;;;;;;;;;;;;;;;16.68;66.16;100883.97;5416559;32;34197;-79
2023/09/30 04:18:02;;;;;;;;;;;;;;;16.79;65.89;100882.44;5413719;32;32862;-78
2023/09/30 04:21:07;;;;;;;;;;;;;;;17.32;64.08;100878.50;5429741;32;34186;-79
2023/09/30 04:24:09;;;;;;;;;;;;;;;17.33;63.88;100877.53;5433250;32;34228;-79
2023/09/30 04:27:11;;;;;;;;;;;;;;;17.20;64.40;100881.03;5431191;32;34927;-79
2023/09/30 04:30:15;;;;;;;;;;;;;;;17.54;63.21;100890.50;5431591;32;34246;-79
2023/09/30 04:33:17;;;;;;;;;;;;;;;17.67;62.71;100890.59;5403714;32;34196;-79
2023/09/30 04:36:20;;;;;;;;;;;;;;;15.92;69.56;100895.22;5422994;32;35420;-78
2023/09/30 04:39:22;;;;;;;;;;;;;;;15.96;70.63;100899.38;5420077;32;33725;-78
2023/09/30 04:42:25;;;;;;;;;;;;;;;16.37;69.02;100895.47;5414707;32;33985;-78
2023/09/30 04:45:27;;;;;;;;;;;;;;;16.23;70.31;100902.38;5418169;32;34274;-79
2023/09/30 04:48:30;;;;;;;;;;;;;;;16.77;68.02;100902.94;5410465;32;34644;-78
2023/09/30 04:51:33;;;;;;;;;;;;;;;16.82;67.01;100904.47;5417033;32;34381;-80
2023/09/30 04:54:35;;;;;;;;;;;;;;;17.43;64.79;100908.88;5431723;32;34043;-80
2023/09/30 04:57:38;;;;;;;;;;;;;;;17.64;63.39;100902.25;5430761;32;35118;-80
2023/09/30 05:00:40;;;;;;;;;;;;;;;17.43;63.85;100904.41;5431367;32;35421;-79
2023/09/30 05:03:43;;;;;;;;;;;;;;;17.27;64.72;100914.25;5430610;32;35504;-79
2023/09/30 05:06:46;;;;;;;;;;;;;;;16.68;67.29;100914.03;5431739;32;34047;-79
2023/09/30 05:09:48;;;;;;;;;;;;;;;16.68;67.59;100913.16;5430416;32;33987;-81
2023/09/30 05:12:53;;;;;;;;;;;;;;;17.70;63.25;100912.53;5431060;32;34910;-81
2023/09/30 05:15:56;;;;;;;;;;;;;;;17.81;62.67;100915.44;5419541;32;34494;-79
2023/09/30 05:18:58;;;;;;;;;;;;;;;17.44;63.67;100921.19;5431005;32;34136;-78
2023/09/30 05:22:01;;;;;;;;;;;;;;;16.58;67.44;100920.78;5431427;32;34380;-80
2023/09/30 05:25:03;;;;;;;;;;;;;;;16.67;67.98;100930.88;5431148;32;35495;-79
2023/09/30 05:28:06;;;;;;;;;;;;;;;17.05;66.38;100933.19;5431709;32;34274;-79
2023/09/30 05:31:08;;;;;;;;;;;;;;;17.55;64.65;100922.28;5430806;32;34146;-79
2023/09/30 05:34:11;;;;;;;;;;;;;;;18.22;62.00;100917.31;5431281;32;34137;-81
2023/09/30 05:37:13;;;;;;;;;;;;;;;19.58;58.32;100915.59;5417893;32;34242;-79
2023/09/30 05:40:30;;;;;;;;;;;;;;;20.58;53.71;100925.50;5421072;32;34381;-81
2023/09/30 05:43:32;;;;;;;;;;;;;;;20.87;52.76;100920.72;5431804;32;34224;-80
2023/09/30 05:46:35;;;;;;;;;;;;;;;21.00;51.59;100922.38;5411727;32;34342;-78
2023/09/30 05:49:37;;;;;;;;;;;;;;;21.18;52.12;100919.28;5411965;32;34279;-80
2023/09/30 05:52:40;;;;;;;;;;;;;;;21.76;50.48;100914.84;5431825;32;34477;-80
2023/09/30 05:55:43;;;;;;;;;;;;;;;22.50;47.12;100916.13;5430019;32;35597;-80
2023/09/30 05:58:45;;;;;;;;;;;;;;;22.01;48.87;100916.47;5433355;32;34209;-80
2023/09/30 06:01:47;;;;;;;;;;;;;;;21.90;49.25;100920.00;5430673;32;34344;-80
2023/09/30 06:04:50;;;;;;;;;;;;;;;22.59;47.39;100914.53;5432532;32;35451;-79
2023/09/30 06:07:54;;;;;;;;;;;;;;;21.43;50.31;100918.31;5430323;32;35625;-78
2023/09/30 06:10:58;;;;;;;;;;;;;;;23.24;45.38;100919.84;5430207;32;34273;-78
2023/09/30 06:14:01;;;;;;;;;;;;;;;22.90;46.09;100921.81;5428170;32;34351;-79
2023/09/30 06:17:03;;;;;;;;;;;;;;;24.23;42.05;100910.47;5430046;32;34172;-80
2023/09/30 06:20:15;;;;;;;;;;;;;;;22.64;45.90;100925.72;5430619;32;33925;-79
2023/09/30 06:23:18;;;;;;;;;;;;;;;22.49;46.14;100930.50;5426220;32;35538;-80
2023/09/30 06:26:24;;;;;;;;;;;;;;;22.37;46.73;100926.13;5430925;32;34292;-80
2023/09/30 06:29:27;;;;;;;;;;;;;;;23.21;44.51;100922.78;5433143;32;34263;-79
2023/09/30 06:32:29;;;;;;;;;;;;;;;23.09;44.47;100923.81;5426247;32;34028;-79
2023/09/30 06:35:37;;;;;;;;;;;;;;;23.20;44.34;100926.47;5418246;32;34169;-81
2023/09/30 06:38:39;;;;;;;;;;;;;;;22.43;46.35;100918.47;5427716;32;34995;-79
2023/09/30 06:41:43;;;;;;;;;;;;;;;22.09;47.16;100922.09;5417746;32;33938;-80
2023/09/30 06:44:46;;;;;;;;;;;;;;;22.33;46.52;100922.00;5427942;32;34202;-79
2023/09/30 06:47:49;;;;;;;;;;;;;;;22.97;45.03;100925.69;5429432;32;33578;-79
2023/09/30 06:50:52;;;;;;;;;;;;;;;23.24;44.32;100924.34;5424267;32;34382;-79
2023/09/30 06:53:54;;;;;;;;;;;;;;;22.17;46.76;100927.72;5414538;32;34263;-79
2023/09/30 06:56:56;;;;;;;;;;;;;;;21.83;48.25;100930.34;5422685;32;280420;-80
2023/09/30 06:59:59;;;;;;;;;;;;;;;23.14;44.82;100928.81;5429209;32;34389;-80
2023/09/30 07:03:01;;;;;;;;;;;;;;;22.95;44.88;100927.66;5430463;32;34159;-80
2023/09/30 07:06:04;;;;;;;;;;;;;;;22.00;47.69;100941.53;5429643;32;35207;-81
2023/09/30 07:09:06;;;;;;;;;;;;;;;23.30;44.29;100931.87;5429089;32;33895;-80
2023/09/30 07:12:08;;;;;;;;;;;;;;;22.20;46.50;100937.31;5431663;32;34050;-82
2023/09/30 07:15:11;;;;;;;;;;;;;;;21.16;50.38;100945.28;5429275;32;34220;-79
2023/09/30 07:18:13;;;;;;;;;;;;;;;21.84;49.31;100939.22;5423928;32;34218;-80
2023/09/30 07:21:16;;;;;;;;;;;;;;;21.45;50.30;100954.69;5420422;32;35156;-80
2023/09/30 07:24:18;;;;;;;;;;;;;;;21.75;49.79;100940.75;5433678;32;34298;-80
2023/09/30 07:27:21;;;;;;;;;;;;;;;22.03;49.50;100944.84;5431341;32;33847;-79
2023/09/30 07:30:29;;;;;;;;;;;;;;;22.15;49.37;100938.56;5432027;32;34670;-79
2023/09/30 07:33:31;;;;;;;;;;;;;;;22.10;49.42;100948.78;5432041;32;34848;-79
2023/09/30 07:36:33;;;;;;;;;;;;;;;22.41;48.98;100938.28;5417438;32;34157;-80
2023/09/30 07:39:36;;;;;;;;;;;;;;;22.10;49.46;100950.59;5412855;32;35531;-80
2023/09/30 07:42:38;;;;;;;;;;;;;;;22.25;48.36;100952.06;5431457;32;34269;-80
2023/09/30 07:45:43;;;;;;;;;;;;;;;23.55;43.81;100946.78;5433081;32;35410;-79
2023/09/30 07:48:45;;;;;;;;;;;;;;;23.94;43.04;100944.38;5432622;32;34139;-80
2023/09/30 07:51:48;;;;;;;;;;;;;;;23.85;43.37;100943.34;5414874;32;35466;-81
2023/09/30 07:54:50;;;;;;;;;;;;;;;24.02;42.77;100950.81;5432292;32;35413;-80
2023/09/30 07:57:52;;;;;;;;;;;;;;;23.88;43.50;100950.28;5431430;32;35158;-81
2023/09/30 08:00:55;;;;;;;;;;;;;;;23.81;43.65;100944.59;5434070;32;35563;-82
2023/09/30 08:03:57;;;;;;;;;;;;;;;24.43;42.05;100943.66;5431905;32;35311;-80
2023/09/30 08:06:59;;;;;;;;;;;;;;;24.13;42.47;100946.31;5414535;32;34104;-80
2023/09/30 08:10:06;;;;;;;;;;;;;;;23.97;43.11;100947.66;5433063;32;35334;-84
2023/09/30 08:13:09;;;;;;;;;;;;;;;24.23;42.34;100936.47;5429337;32;35897;-81
2023/09/30 08:16:11;;;;;;;;;;;;;;;23.61;44.20;100951.66;5433311;32;34108;-78
2023/09/30 08:19:14;;;;;;;;;;;;;;;23.41;44.52;100950.62;5420886;32;35273;-79
2023/09/30 08:22:16;;;;;;;;;;;;;;;23.54;44.80;100957.62;5414576;32;36462;-80
2023/09/30 08:25:18;;;;;;;;;;;;;;;23.41;44.72;100955.13;5429882;32;34176;-82
2023/09/30 08:28:20;;;;;;;;;;;;;;;24.99;41.01;100950.28;5431790;32;34170;-80
2023/09/30 08:31:24;;;;;;;;;;;;;;;25.18;40.73;100949.50;5433294;32;35443;-80
2023/09/30 08:34:26;;;;;;;;;;;;;;;24.84;41.28;100942.63;5431221;32;35700;-81
2023/09/30 08:37:29;;;;;;;;;;;;;;;25.33;40.06;100940.88;5431594;32;33433;-80
2023/09/30 08:40:31;;;;;;;;;;;;;;;25.89;38.69;100940.12;5429103;32;34327;-79
2023/09/30 08:43:39;;;;;;;;;;;;;;;25.67;39.34;100933.19;5433343;32;34261;-83
2023/09/30 08:46:42;;;;;;;;;;;;;;;25.19;40.42;100937.78;5431574;32;35410;-81
2023/09/30 08:49:44;;;;;;;;;;;;;;;25.99;38.86;100932.00;5413629;32;35434;-80
2023/09/30 08:52:47;;;;;;;;;;;;;;;24.71;40.99;100933.97;5408224;32;34206;-82
2023/09/30 08:55:51;;;;;;;;;;;;;;;25.28;39.50;100935.06;5415263;32;34281;-81
2023/09/30 08:58:57;;;;;;;;;;;;;;;25.06;39.43;100929.97;5433484;32;34057;-83
2023/09/30 09:02:00;;;;;;;;;;;;;;;24.89;39.43;100923.41;5430755;32;35213;-80
2023/09/30 09:05:03;;;;;;;;;;;;;;;25.46;38.70;100931.66;5413154;32;35310;-79
2023/09/30 09:08:05;;;;;;;;;;;;;;;26.13;37.33;100925.31;5431497;32;34356;-79
2023/09/30 09:11:08;;;;;;;;;;;;;;;26.27;37.11;100918.56;5431205;32;35907;-80
2023/09/30 09:14:10;;;;;;;;;;;;;;;25.26;39.71;100930.84;5433196;32;34313;-79
2023/09/30 09:17:13;;;;;;;;;;;;;;;25.19;39.42;100930.53;5430758;32;34574;-82
2023/09/30 09:20:20;;;;;;;;;;;;;;;25.67;37.24;100922.41;5419043;32;34229;-81
2023/09/30 09:23:22;;;;;;;;;;;;;;;25.06;38.86;100935.34;5428025;32;33937;-80
2023/09/30 09:26:26;;;;;;;;;;;;;;;25.77;37.69;100927.00;5414160;32;34130;-81
2023/09/30 09:29:28;;;;;;;;;;;;;;;25.60;38.04;100923.16;5419068;32;33887;-81
2023/09/30 09:32:30;;;;;;;;;;;;;;;26.26;36.62;100919.56;5430289;32;34180;-81
2023/09/30 09:35:34;;;;;;;;;;;;;;;25.19;38.77;100929.69;5427260;32;34213;-81
2023/09/30 09:38:49;;;;;;;;;;;;;;;25.24;39.20;100913.97;5413665;32;35137;-81
2023/09/30 09:41:52;;;;;;;;;;;;;;;26.17;38.08;100911.41;5431849;32;34209;-80
2023/09/30 09:44:59;;;;;;;;;;;;;;;24.69;40.53;100917.16;5417295;32;34184;-81
2023/09/30 09:48:01;;;;;;;;;;;;;;;24.78;41.04;100912.75;5432812;32;33692;-82
2023/09/30 09:51:05;;;;;;;;;;;;;;;25.67;39.17;100910.81;5418023;32;34098;-82
2023/09/30 09:54:07;;;;;;;;;;;;;;;26.02;38.30;100912.88;5429591;32;34256;-82
2023/09/30 09:57:09;;;;;;;;;;;;;;;24.00;42.43;100919.69;5411720;32;35882;-82
2023/09/30 10:00:16;;;;;;;;;;;;;;;23.47;43.63;100925.13;5415139;32;34411;-81
2023/09/30 10:03:18;;;;;;;;;;;;;;;24.26;41.97;100910.19;5432301;32;34184;-80
2023/09/30 10:06:22;;;;;;;;;;;;;;;24.55;41.45;100914.84;5429652;32;34164;-81
2023/09/30 10:09:25;;;;;;;;;;;;;;;24.16;41.89;100914.69;5431565;32;34265;-80
2023/09/30 10:12:28;;;;;;;;;;;;;;;23.45;43.18;100916.34;5406998;32;35827;-80
2023/09/30 10:15:31;;;;;;;;;;;;;;;23.68;43.12;100909.91;5430494;32;34298;-81
2023/09/30 10:18:54;;;;;;;;;;;;;;;24.52;41.34;100912.44;5435336;32;34160;-91
2023/09/30 10:22:16;;;;;;;;;;;;;;;24.35;41.54;100911.25;5427148;32;34451;-81
2023/09/30 10:25:34;;;;;;;;;;;;;;;23.71;43.48;100912.31;5430198;32;34281;-81
2023/09/30 10:28:46;;;;;;;;;;;;;;;23.96;42.98;100902.16;5432467;32;34046;-83
2023/09/30 10:31:52;;;;;;;;;;;;;;;24.26;42.03;100898.59;5430125;32;34649;-81
2023/09/30 10:34:55;;;;;;;;;;;;;;;25.19;40.12;100887.50;5414061;32;34143;-81
2023/09/30 10:38:27;;;;;;;;;;;;;;;24.83;41.13;100891.69;5428094;32;34777;-81
2023/09/30 10:41:39;;;;;;;;;;;;;;;25.76;39.18;100885.75;5422645;32;35399;-84
2023/09/30 10:44:41;;;;;;;;;;;;;;;25.29;40.95;100909.00;5411518;32;35293;-83
2023/09/30 10:47:44;;;;;;;;;;;;;;;24.65;41.86;100896.91;5429831;32;34101;-82
2023/09/30 10:50:50;;;;;;;;;;;;;;;24.87;42.02;100903.88;5422949;32;33884;-81
2023/09/30 10:53:56;;;;;;;;;;;;;;;24.04;43.15;100903.19;5428888;32;34927;-81
2023/09/30 10:56:59;;;;;;;;;;;;;;;25.15;41.08;100896.84;5420599;32;35756;-81
2023/09/30 11:00:11;;;;;;;;;;;;;;;24.61;41.84;100894.66;5418372;32;34221;-80
2023/09/30 11:03:13;;;;;;;;;;;;;;;24.01;43.31;100895.38;5431990;32;35394;-80
2023/09/30 11:06:20;;;;;;;;;;;;;;;23.54;44.36;100898.63;5434117;32;34528;-80
2023/09/30 11:09:23;;;;;;;;;;;;;;;23.59;44.40;100889.19;5432190;32;35353;-81
2023/09/30 11:12:26;;;;;;;;;;;;;;;23.26;45.36;100897.44;5433043;32;34423;-79
2023/09/30 11:15:31;;;;;;;;;;;;;;;23.59;45.19;100899.09;5433354;32;34511;-81
2023/09/30 11:18:33;;;;;;;;;;;;;;;23.56;45.19;100896.66;5417640;32;34187;-81
2023/09/30 11:21:35;;;;;;;;;;;;;;;22.81;46.90;100898.44;5435018;32;34178;-89
2023/09/30 11:24:38;;;;;;;;;;;;;;;23.47;45.53;100900.97;5432076;32;33846;-79
2023/09/30 11:27:40;;;;;;;;;;;;;;;22.36;47.95;100901.19;5434297;32;35329;-80
2023/09/30 11:30:55;;;;;;;;;;;;;;;22.32;48.29;100907.75;5431619;32;33758;-80
2023/09/30 11:34:03;;;;;;;;;;;;;;;22.69;47.74;100892.25;5415343;32;34110;-80
2023/09/30 11:37:05;;;;;;;;;;;;;;;22.24;49.19;100912.03;5428631;32;33858;-80
2023/09/30 11:40:13;;;;;;;;;;;;;;;21.86;50.41;100915.88;5431628;32;34261;-80
2023/09/30 11:43:16;;;;;;;;;;;;;;;22.52;48.35;100908.81;5431333;32;34105;-81
2023/09/30 11:46:19;;;;;;;;;;;;;;;22.44;48.93;100919.31;5431871;32;34276;-80
2023/09/30 11:49:26;;;;;;;;;;;;;;;22.62;48.40;100917.84;5432131;32;34235;-81
2023/09/30 11:52:28;;;;;;;;;;;;;;;22.09;50.08;100912.28;5431412;32;35922;-80
2023/09/30 11:55:31;;;;;;;;;;;;;;;22.11;50.15;100913.00;5430619;32;34448;-79
2023/09/30 11:58:33;;;;;;;;;;;;;;;22.46;49.80;100909.31;5433095;32;35237;-79
2023/09/30 12:01:35;;;;;;;;;;;;;;;22.38;50.24;100901.06;5417320;32;34038;-80
2023/09/30 12:04:38;;;;;;;;;;;;;;;21.83;52.12;100900.91;5432519;32;34220;-80
2023/09/30 12:07:41;;;;;;;;;;;;;;;22.32;51.20;100896.19;5417226;32;35348;-81
2023/09/30 12:10:44;;;;;;;;;;;;;;;22.53;51.00;100894.44;5415981;32;35220;-81
2023/09/30 12:13:48;;;;;;;;;;;;;;;22.62;51.32;100904.44;5418670;32;34333;-79
2023/09/30 12:16:51;;;;;;;;;;;;;;;22.58;51.99;100897.63;5431560;32;35598;-81
2023/09/30 12:19:53;;;;;;;;;;;;;;;22.24;53.28;100899.50;5412966;32;33264;-81
2023/09/30 12:22:55;;;;;;;;;;;;;;;21.84;54.71;100899.09;5431244;32;35360;-80
2023/09/30 12:25:57;;;;;;;;;;;;;;;22.23;53.74;100896.94;5432739;32;34146;-79
2023/09/30 12:29:18;;;;;;;;;;;;;;;22.99;51.84;100896.06;5430946;32;35780;-80
2023/09/30 12:32:20;;;;;;;;;;;;;;;22.48;53.72;100904.72;5424006;32;35352;-82
2023/09/30 12:35:23;;;;;;;;;;;;;;;22.01;55.01;100898.59;5433415;32;34419;-80
2023/09/30 12:38:25;;;;;;;;;;;;;;;21.85;55.30;100898.09;5431094;32;34363;-81
2023/09/30 12:41:29;;;;;;;;;;;;;;;22.43;54.11;100902.41;5433473;32;35602;-80
2023/09/30 12:44:32;;;;;;;;;;;;;;;22.07;55.34;100903.47;5416628;32;35792;-82
2023/09/30 12:47:35;;;;;;;;;;;;;;;22.43;54.59;100902.41;5431350;32;34449;-80
2023/09/30 12:50:37;;;;;;;;;;;;;;;23.22;52.25;100908.41;5430295;32;34229;-84
2023/09/30 12:53:39;;;;;;;;;;;;;;;22.48;54.02;100899.34;5429833;32;34310;-78
2023/09/30 12:56:42;;;;;;;;;;;;;;;22.23;55.13;100913.00;5431702;32;34098;-80
2023/09/30 12:59:49;;;;;;;;;;;;;;;22.19;55.20;100917.75;5430767;32;34121;-81
2023/09/30 13:02:51;;;;;;;;;;;;;;;22.47;54.60;100915.53;5433407;32;34424;-79
2023/09/30 13:05:54;;;;;;;;;;;;;;;21.76;56.84;100909.50;5419781;32;33767;-82
2023/09/30 13:08:56;;;;;;;;;;;;;;;22.31;55.16;100911.41;5406338;32;34558;-81
2023/09/30 13:12:00;;;;;;;;;;;;;;;21.82;56.61;100909.88;5431962;32;34297;-80
2023/09/30 13:15:02;;;;;;;;;;;;;;;21.54;57.91;100903.16;5417250;32;34340;-79
2023/09/30 13:18:05;;;;;;;;;;;;;;;21.63;57.76;100899.75;5428934;32;34035;-80
2023/09/30 13:21:07;;;;;;;;;;;;;;;21.85;57.16;100893.59;5430352;32;34652;-81
2023/09/30 13:24:10;;;;;;;;;;;;;;;21.97;56.58;100881.09;5432668;32;35351;-80
2023/09/30 13:27:15;;;;;;;;;;;;;;;22.78;54.24;100892.44;5430310;32;35418;-80
2023/09/30 13:30:18;;;;;;;;;;;;;;;23.00;53.64;100883.53;5431643;32;32873;-81
2023/09/30 13:33:23;;;;;;;;;;;;;;;23.35;53.04;100881.41;5418267;32;34971;-80
2023/09/30 13:36:25;;;;;;;;;;;;;;;22.40;55.44;100888.37;5427235;32;35201;-81
2023/09/30 13:39:28;;;;;;;;;;;;;;;22.98;54.02;100884.50;5432817;32;34348;-80
2023/09/30 13:42:31;;;;;;;;;;;;;;;23.57;52.43;100883.12;5429702;32;34310;-79
2023/09/30 13:45:34;;;;;;;;;;;;;;;23.12;53.07;100872.62;5432241;32;35160;-80
2023/09/30 13:48:36;;;;;;;;;;;;;;;22.75;54.56;100876.63;5416532;32;34207;-80
2023/09/30 13:51:39;;;;;;;;;;;;;;;22.64;54.76;100872.16;5429603;32;34324;-80
2023/09/30 13:54:41;;;;;;;;;;;;;;;23.19;53.60;100860.41;5416454;32;34761;-81
2023/09/30 13:57:46;;;;;;;;;;;;;;;23.07;53.57;100863.28;5429888;32;34491;-81
2023/09/30 14:00:49;;;;;;;;;;;;;;;23.18;53.43;100857.84;5432399;32;35613;-81
2023/09/30 14:03:55;;;;;;;;;;;;;;;23.12;53.63;100847.63;5426492;32;34353;-80
2023/09/30 14:07:00;;;;;;;;;;;;;;;23.45;52.30;100862.72;5432233;32;33948;-81
2023/09/30 14:10:03;;;;;;;;;;;;;;;23.47;52.67;100852.69;5424235;32;35646;-83
2023/09/30 14:13:06;;;;;;;;;;;;;;;23.10;53.54;100858.50;5430572;32;34243;-81
2023/09/30 14:16:08;;;;;;;;;;;;;;;23.51;52.59;100852.31;5432214;32;34242;-81
2023/09/30 14:19:13;;;;;;;;;;;;;;;23.54;52.64;100848.50;5423055;32;34104;-86
2023/09/30 14:22:16;;;;;;;;;;;;;;;24.07;51.46;100850.19;5432572;32;35284;-81
2023/09/30 14:25:19;;;;;;;;;;;;;;;23.00;54.12;100854.06;5415987;32;34653;-80
2023/09/30 14:28:22;;;;;;;;;;;;;;;23.72;52.17;100846.09;5416672;32;34266;-79
2023/09/30 14:31:24;;;;;;;;;;;;;;;23.98;51.74;100849.19;5430308;32;35107;-82
2023/09/30 14:34:27;;;;;;;;;;;;;;;23.43;53.24;100844.03;5430385;32;34122;-81
2023/09/30 14:37:31;;;;;;;;;;;;;;;23.80;52.01;100840.03;5431798;32;34289;-82
2023/09/30 14:40:39;;;;;;;;;;;;;;;23.89;52.01;100850.81;5430288;32;34175;-81
2023/09/30 14:43:41;;;;;;;;;;;;;;;24.30;51.36;100841.78;5419981;32;35151;-81
2023/09/30 14:46:47;;;;;;;;;;;;;;;23.39;53.42;100837.25;5430376;32;34091;-81
2023/09/30 14:49:50;;;;;;;;;;;;;;;22.97;54.88;100831.00;5430352;32;35228;-80
2023/09/30 14:52:52;;;;;;;;;;;;;;;23.41;53.96;100832.59;5415354;32;35439;-81
2023/09/30 14:55:54;;;;;;;;;;;;;;;23.26;54.56;100827.72;5414251;32;35321;-84
2023/09/30 14:58:57;;;;;;;;;;;;;;;23.96;52.20;100827.84;5417785;32;34156;-81
2023/09/30 15:01:59;;;;;;;;;;;;;;;23.32;54.08;100822.69;5428829;32;34132;-80
2023/09/30 15:05:02;;;;;;;;;;;;;;;23.75;52.91;100825.19;5415446;32;34399;-79
2023/09/30 15:08:04;;;;;;;;;;;;;;;23.57;53.91;100826.78;5428487;32;35990;-80
2023/09/30 15:11:12;;;;;;;;;;;;;;;23.59;53.12;100830.16;5429491;32;34049;-80
2023/09/30 15:14:14;;;;;;;;;;;;;;;24.49;51.47;100830.28;5417073;32;34598;-82
2023/09/30 15:17:16;;;;;;;;;;;;;;;24.10;51.95;100837.34;5410214;32;34477;-79
2023/09/30 15:20:18;;;;;;;;;;;;;;;24.09;51.94;100827.59;5417279;32;34102;-79
2023/09/30 15:23:21;;;;;;;;;;;;;;;23.43;54.15;100829.78;5421842;32;34624;-80
2023/09/30 15:26:23;;;;;;;;;;;;;;;22.88;55.74;100839.84;5431072;32;34093;-82
2023/09/30 15:29:25;;;;;;;;;;;;;;;23.34;54.27;100834.13;5430061;32;35406;-83
2023/09/30 15:32:31;;;;;;;;;;;;;;;23.10;55.03;100839.72;5429291;32;33203;-81
2023/09/30 15:35:48;;;;;;;;;;;;;;;23.33;54.64;100835.09;5417342;32;34064;-78
2023/09/30 15:39:04;;;;;;;;;;;;;;;23.55;53.69;100838.59;5430465;32;34636;-84
2023/09/30 15:42:23;;;;;;;;;;;;;;;23.29;54.52;100833.66;5420105;32;34191;-80